createdAt,value
2019-05-07T00:01:12.348Z,2.00
2019-05-07T00:03:42.116Z,2.10
2019-05-07T00:06:12.372Z,2.05
2019-05-07T00:08:44.719Z,2.30
2019-05-07T00:11:12.734Z,2.05
2019-05-07T00:13:44.137Z,2.72
2019-05-07T00:16:12.818Z,2.58
2019-05-07T00:18:42.927Z,1.25
2019-05-07T00:21:12.607Z,2.10
2019-05-07T00:23:43.286Z,2.22
2019-05-07T00:26:13.230Z,2.85
2019-05-07T00:28:43.172Z,2.12
2019-05-07T00:31:12.507Z,3.45
2019-05-07T00:33:43.263Z,1.42
2019-05-07T00:36:12.440Z,2.30
2019-05-07T00:38:42.765Z,2.22
2019-05-07T00:41:12.345Z,2.00
2019-05-07T00:43:42.895Z,1.70
2019-05-07T00:46:12.993Z,2.60
2019-05-07T00:48:42.262Z,2.08
2019-05-07T00:51:12.783Z,2.27
2019-05-07T00:53:42.439Z,3.25
2019-05-07T00:56:12.424Z,2.55
2019-05-07T00:58:42.834Z,2.10
2019-05-07T01:01:13.043Z,2.45
2019-05-07T01:03:42.444Z,2.62
2019-05-07T01:06:12.839Z,2.50
2019-05-07T01:08:43.013Z,4.87
2019-05-07T01:11:13.198Z,3.45
2019-05-07T01:13:43.272Z,2.65
2019-05-07T01:16:13.842Z,3.02
2019-05-07T01:18:42.735Z,2.00
2019-05-07T01:21:13.226Z,3.25
2019-05-07T01:23:42.762Z,3.75
2019-05-07T01:26:12.455Z,3.00
2019-05-07T01:28:42.126Z,2.30
2019-05-07T01:31:12.552Z,2.70
2019-05-07T01:33:42.355Z,2.87
2019-05-07T01:36:13.197Z,2.77
2019-05-07T01:38:42.712Z,2.85
2019-05-07T01:41:12.494Z,2.60
2019-05-07T01:43:42.933Z,2.30
2019-05-07T01:46:12.386Z,2.62
2019-05-07T01:48:42.926Z,2.33
2019-05-07T01:51:12.885Z,4.22
2019-05-07T01:53:42.992Z,3.55
2019-05-07T01:56:12.473Z,2.55
2019-05-07T01:58:42.525Z,3.92
2019-05-07T02:01:13.119Z,3.08
2019-05-07T02:03:42.057Z,2.22
2019-05-07T02:06:13.058Z,2.92
2019-05-07T02:08:42.254Z,3.15
2019-05-07T02:11:12.851Z,2.80
2019-05-07T02:13:42.083Z,3.15
2019-05-07T02:16:12.427Z,3.27
2019-05-07T02:18:42.466Z,3.02
2019-05-07T02:21:12.885Z,2.65
2019-05-07T02:23:42.605Z,3.55
2019-05-07T02:26:13.319Z,2.67
2019-05-07T02:28:42.638Z,3.22
2019-05-07T02:31:14.638Z,2.67
2019-05-07T02:33:43.343Z,2.30
2019-05-07T02:36:14.291Z,3.75
2019-05-07T02:38:44.275Z,3.02
2019-05-07T02:41:14.160Z,3.05
2019-05-07T02:43:43.136Z,3.15
2019-05-07T02:46:25.547Z,3.17
2019-05-07T02:48:43.026Z,3.98
2019-05-07T02:51:13.208Z,3.62
2019-05-07T02:53:43.067Z,2.67
2019-05-07T02:56:12.993Z,3.12
2019-05-07T02:58:43.456Z,3.50
2019-05-07T03:01:13.872Z,3.62
2019-05-07T03:03:45.006Z,3.22
2019-05-07T03:06:13.801Z,2.58
2019-05-07T03:08:43.901Z,3.60
2019-05-07T03:11:14.305Z,4.05
2019-05-07T03:13:43.537Z,3.10
2019-05-07T03:16:13.132Z,4.37
2019-05-07T03:18:43.784Z,3.90
2019-05-07T03:21:12.850Z,5.90
2019-05-07T03:23:42.876Z,3.40
2019-05-07T03:26:13.710Z,3.35
2019-05-07T03:28:42.756Z,3.17
2019-05-07T03:31:16.639Z,4.42
2019-05-07T03:33:47.039Z,4.17
2019-05-07T03:36:16.844Z,4.17
2019-05-07T03:38:43.936Z,3.22
2019-05-07T03:41:13.040Z,4.00
2019-05-07T03:43:43.491Z,5.20
2019-05-07T03:46:14.081Z,3.22
2019-05-07T03:48:44.084Z,3.12
2019-05-07T03:51:13.357Z,4.62
2019-05-07T03:53:43.701Z,3.55
2019-05-07T03:56:13.301Z,4.35
2019-05-07T03:58:43.243Z,4.10
2019-05-07T04:01:13.303Z,4.42
2019-05-07T04:03:44.763Z,4.33
2019-05-07T04:06:12.959Z,4.25
2019-05-07T04:08:43.344Z,3.90
2019-05-07T04:11:13.933Z,3.55
2019-05-07T04:13:44.062Z,4.20
2019-05-07T04:16:13.814Z,3.42
2019-05-07T04:18:43.914Z,3.80
2019-05-07T04:21:13.955Z,4.95
2019-05-07T04:23:43.856Z,3.20
2019-05-07T04:26:13.417Z,4.28
2019-05-07T04:28:43.585Z,3.95
2019-05-07T04:31:14.145Z,3.72
2019-05-07T04:33:43.911Z,3.83
2019-05-07T04:36:14.206Z,4.35
2019-05-07T04:38:43.947Z,3.60
2019-05-07T04:41:13.808Z,3.98
2019-05-07T04:43:43.512Z,4.60
2019-05-07T04:46:14.444Z,3.42
2019-05-07T04:48:44.004Z,4.45
2019-05-07T04:51:12.904Z,4.05
2019-05-07T04:53:42.976Z,5.72
2019-05-07T04:56:14.064Z,3.98
2019-05-07T04:58:43.332Z,3.77
2019-05-07T05:01:13.865Z,3.80
2019-05-07T05:03:43.660Z,4.30
2019-05-07T05:06:13.613Z,3.83
2019-05-07T05:08:43.465Z,3.45
2019-05-07T05:11:12.859Z,4.55
2019-05-07T05:13:44.331Z,3.22
2019-05-07T05:16:12.609Z,3.85
2019-05-07T05:18:42.017Z,3.75
2019-05-07T05:21:12.098Z,4.42
2019-05-07T05:23:41.906Z,3.47
2019-05-07T05:26:12.533Z,3.35
2019-05-07T05:28:42.078Z,4.42
2019-05-07T05:31:12.674Z,3.90
2019-05-07T05:33:41.973Z,5.08
2019-05-07T05:36:12.614Z,4.22
2019-05-07T05:38:42.369Z,4.40
2019-05-07T05:41:12.263Z,4.20
2019-05-07T05:43:42.587Z,4.47
2019-05-07T05:46:12.083Z,4.78
2019-05-07T05:48:42.549Z,5.58
2019-05-07T05:51:11.964Z,4.92
2019-05-07T05:53:40.622Z,3.95
2019-05-07T05:56:09.278Z,4.15
2019-05-07T05:58:37.890Z,5.37
2019-05-07T06:01:06.548Z,4.75
2019-05-07T06:03:35.205Z,3.90
2019-05-07T06:06:03.971Z,5.42
2019-05-07T06:08:32.760Z,4.60
2019-05-07T06:11:02.292Z,6.47
2019-05-07T06:13:32.364Z,4.75
2019-05-07T06:16:03.104Z,5.30
2019-05-07T06:18:32.747Z,5.47
2019-05-07T06:21:03.006Z,4.08
2019-05-07T06:23:33.049Z,4.30
2019-05-07T06:26:05.103Z,3.90
2019-05-07T06:28:33.073Z,5.08
2019-05-07T06:31:02.225Z,5.35
2019-05-07T06:33:32.463Z,4.53
2019-05-07T06:36:02.868Z,4.70
2019-05-07T06:38:32.129Z,4.78
2019-05-07T06:41:02.690Z,4.87
2019-05-07T06:43:32.528Z,3.45
2019-05-07T06:46:01.996Z,5.40
2019-05-07T06:48:38.844Z,4.33
2019-05-07T06:51:03.094Z,3.12
2019-05-07T06:53:33.663Z,3.35
2019-05-07T06:56:03.059Z,5.62
2019-05-07T06:58:32.685Z,3.47
2019-05-07T07:01:02.318Z,5.33
2019-05-07T07:03:32.790Z,2.77
2019-05-07T07:06:02.765Z,3.60
2019-05-07T07:08:32.563Z,4.15
2019-05-07T07:11:02.628Z,4.25
2019-05-07T07:13:32.141Z,2.40
2019-05-07T07:16:02.072Z,1.95
2019-05-07T07:18:32.385Z,3.17
2019-05-07T07:21:02.457Z,3.22
2019-05-07T07:23:32.407Z,4.10
2019-05-07T07:26:03.148Z,2.72
2019-05-07T07:28:32.793Z,3.67
2019-05-07T07:31:02.335Z,2.50
2019-05-07T07:33:32.018Z,3.80
2019-05-07T07:36:02.463Z,2.80
2019-05-07T07:38:32.835Z,1.82
2019-05-07T07:41:05.460Z,1.60
2019-05-07T07:43:34.325Z,3.55
2019-05-07T07:46:03.230Z,2.10
2019-05-07T07:48:32.187Z,2.40
2019-05-07T07:51:02.964Z,2.02
2019-05-07T07:53:35.146Z,3.02
2019-05-07T07:56:02.583Z,3.50
2019-05-07T07:58:32.178Z,3.52
2019-05-07T08:01:02.814Z,2.83
2019-05-07T08:03:32.982Z,1.55
2019-05-07T08:06:02.198Z,1.75
2019-05-07T08:08:31.982Z,3.50
2019-05-07T08:11:02.396Z,3.92
2019-05-07T08:13:32.451Z,2.30
2019-05-07T08:16:02.476Z,2.50
2019-05-07T08:18:32.778Z,3.37
2019-05-07T08:21:02.556Z,1.47
2019-05-07T08:23:31.998Z,1.90
2019-05-07T08:26:02.555Z,2.15
2019-05-07T08:28:32.068Z,1.42
2019-05-07T08:31:02.873Z,2.67
2019-05-07T08:33:32.280Z,2.80
2019-05-07T08:36:02.699Z,1.82
2019-05-07T08:38:32.757Z,4.10
2019-05-07T08:41:02.755Z,2.58
2019-05-07T08:43:32.230Z,2.77
2019-05-07T08:46:02.657Z,2.15
2019-05-07T08:48:32.082Z,1.90
2019-05-07T08:51:02.555Z,2.02
2019-05-07T08:53:32.827Z,2.05
2019-05-07T08:56:03.226Z,2.55
2019-05-07T08:58:32.109Z,2.95
2019-05-07T09:01:02.910Z,1.75
2019-05-07T09:03:32.384Z,2.45
2019-05-07T09:06:02.473Z,2.75
2019-05-07T09:08:32.125Z,2.77
2019-05-07T09:11:02.186Z,3.25
2019-05-07T09:13:32.960Z,2.60
2019-05-07T09:16:02.396Z,1.90
2019-05-07T09:18:32.205Z,2.20
2019-05-07T09:21:02.170Z,1.37
2019-05-07T09:23:31.880Z,2.40
2019-05-07T09:26:02.630Z,1.65
2019-05-07T09:28:32.638Z,1.42
2019-05-07T09:31:01.849Z,1.75
2019-05-07T09:33:32.053Z,1.60
2019-05-07T09:36:02.282Z,1.55
2019-05-07T09:38:32.784Z,1.17
2019-05-07T09:41:02.747Z,1.77
2019-05-07T09:43:32.494Z,2.92
2019-05-07T09:46:02.674Z,1.77
2019-05-07T09:48:33.621Z,1.00
2019-05-07T09:51:02.393Z,1.37
2019-05-07T09:53:32.124Z,2.27
2019-05-07T09:56:02.243Z,1.30
2019-05-07T09:58:36.721Z,1.75
2019-05-07T10:01:02.190Z,1.65
2019-05-07T10:03:32.341Z,1.90
2019-05-07T10:06:02.287Z,1.98
2019-05-07T10:08:32.936Z,1.98
2019-05-07T10:11:02.722Z,1.70
2019-05-07T10:13:33.039Z,1.82
2019-05-07T10:16:03.829Z,1.92
2019-05-07T10:18:32.446Z,2.60
2019-05-07T10:21:02.542Z,1.92
2019-05-07T10:23:31.419Z,1.35
2019-05-07T10:26:01.813Z,1.15
2019-05-07T10:28:32.043Z,1.55
2019-05-07T10:31:00.980Z,1.98
2019-05-07T10:33:31.781Z,2.08
2019-05-07T10:36:01.942Z,3.05
2019-05-07T10:38:30.325Z,2.17
2019-05-07T10:40:59.336Z,1.82
2019-05-07T10:43:28.013Z,1.87
2019-05-07T10:45:57.220Z,1.95
2019-05-07T10:48:26.002Z,2.45
2019-05-07T10:50:54.683Z,1.72
2019-05-07T10:53:23.538Z,1.85
2019-05-07T10:55:52.259Z,1.82
2019-05-07T10:58:20.946Z,2.15
2019-05-07T11:00:49.836Z,1.87
2019-05-07T11:03:18.487Z,1.27
2019-05-07T11:05:47.100Z,1.55
2019-05-07T11:08:15.794Z,2.80
2019-05-07T11:10:44.411Z,2.15
2019-05-07T11:13:13.067Z,2.90
2019-05-07T11:15:42.900Z,1.20
2019-05-07T11:18:12.630Z,2.12
2019-05-07T11:20:49.318Z,1.20
2019-05-07T11:23:13.118Z,1.60
2019-05-07T11:25:42.157Z,2.25
2019-05-07T11:28:12.400Z,1.57
2019-05-07T11:30:42.531Z,2.27
2019-05-07T11:33:12.774Z,2.90
2019-05-07T11:35:42.407Z,1.57
2019-05-07T11:38:20.678Z,2.22
2019-05-07T11:40:42.658Z,2.67
2019-05-07T11:43:13.043Z,2.62
2019-05-07T11:45:42.001Z,2.10
2019-05-07T11:48:13.116Z,1.45
2019-05-07T11:50:42.258Z,1.22
2019-05-07T11:53:11.097Z,2.40
2019-05-07T11:55:41.921Z,3.33
2019-05-07T11:58:12.656Z,2.35
2019-05-07T12:00:42.660Z,1.85
2019-05-07T12:03:11.329Z,1.35
2019-05-07T12:05:42.135Z,1.25
2019-05-07T12:08:10.328Z,0.90
2019-05-07T12:10:39.161Z,2.85
2019-05-07T12:13:07.784Z,1.55
2019-05-07T12:15:38.227Z,1.90
2019-05-07T12:18:07.075Z,2.95
2019-05-07T12:20:36.029Z,3.02
2019-05-07T12:23:04.670Z,1.60
2019-05-07T12:25:33.303Z,2.52
2019-05-07T12:28:02.639Z,1.27
2019-05-07T12:30:32.618Z,2.05
2019-05-07T12:33:02.279Z,0.72
2019-05-07T12:35:31.044Z,1.10
2019-05-07T12:38:01.963Z,1.70
2019-05-07T12:40:32.401Z,1.22
2019-05-07T12:43:01.963Z,1.98
2019-05-07T12:45:30.767Z,1.22
2019-05-07T12:47:59.426Z,0.80
2019-05-07T12:50:28.551Z,1.72
2019-05-07T12:52:57.214Z,3.47
2019-05-07T12:55:25.958Z,2.10
2019-05-07T12:57:54.575Z,1.50
2019-05-07T13:00:24.455Z,1.62
2019-05-07T13:02:53.140Z,1.47
2019-05-07T13:05:21.749Z,1.47
2019-05-07T13:07:50.412Z,1.77
2019-05-07T13:10:19.025Z,2.72
2019-05-07T13:12:47.686Z,1.77
2019-05-07T13:15:24.969Z,1.80
2019-05-07T13:17:46.820Z,1.10
2019-05-07T13:20:15.552Z,1.27
2019-05-07T13:22:44.166Z,1.65
2019-05-07T13:25:13.366Z,1.40
2019-05-07T13:27:42.883Z,3.33
2019-05-07T13:30:12.901Z,2.02
2019-05-07T13:32:45.021Z,1.07
2019-05-07T13:35:13.582Z,1.62
2019-05-07T13:37:42.638Z,1.07
2019-05-07T13:40:11.738Z,0.90
2019-05-07T13:42:41.908Z,2.70
2019-05-07T13:45:12.022Z,1.22
2019-05-07T13:47:41.114Z,2.22
2019-05-07T13:50:11.914Z,1.57
2019-05-07T13:52:43.147Z,2.12
2019-05-07T13:55:12.834Z,0.90
2019-05-07T13:57:41.915Z,2.42
2019-05-07T14:00:12.977Z,1.57
2019-05-07T14:02:42.219Z,1.87
2019-05-07T14:05:13.983Z,1.65
2019-05-07T14:07:42.013Z,1.37
2019-05-07T14:10:12.597Z,1.30
2019-05-07T14:12:42.584Z,1.82
2019-05-07T14:15:12.663Z,2.58
2019-05-07T14:17:41.697Z,1.40
2019-05-07T14:20:12.926Z,1.07
2019-05-07T14:22:42.489Z,1.00
2019-05-07T14:25:11.752Z,1.30
2019-05-07T14:27:42.682Z,1.57
2019-05-07T14:30:12.972Z,1.45
2019-05-07T14:32:42.149Z,1.62
2019-05-07T14:35:12.304Z,2.22
2019-05-07T14:37:41.826Z,2.33
2019-05-07T14:40:12.959Z,1.30
2019-05-07T14:42:41.985Z,1.70
2019-05-07T14:45:10.929Z,0.60
2019-05-07T14:47:39.588Z,3.10
2019-05-07T14:50:08.709Z,1.55
2019-05-07T14:52:37.773Z,2.02
2019-05-07T14:55:07.490Z,1.10
2019-05-07T14:57:36.626Z,1.40
2019-05-07T15:00:09.518Z,1.25
2019-05-07T15:02:38.172Z,0.88
2019-05-07T15:05:08.122Z,1.27
2019-05-07T15:07:36.804Z,1.45
2019-05-07T15:10:09.154Z,1.52
2019-05-07T15:12:37.842Z,0.75
2019-05-07T15:15:08.905Z,1.47
2019-05-07T15:17:37.642Z,1.55
2019-05-07T15:20:06.854Z,0.85
2019-05-07T15:22:46.317Z,1.30
2019-05-07T15:25:07.237Z,3.30
2019-05-07T15:27:36.331Z,2.00
2019-05-07T15:30:05.878Z,0.70
2019-05-07T15:32:34.541Z,1.72
2019-05-07T15:35:05.464Z,1.07
2019-05-07T15:37:34.181Z,0.88
2019-05-07T15:40:04.756Z,2.27
2019-05-07T15:42:33.476Z,1.50
2019-05-07T15:45:02.439Z,2.65
2019-05-07T15:47:31.774Z,1.47
2019-05-07T15:50:00.551Z,1.10
2019-05-07T15:52:29.235Z,2.52
2019-05-07T15:54:57.846Z,1.70
2019-05-07T15:57:26.513Z,1.10
2019-05-07T15:59:55.119Z,1.20
2019-05-07T16:02:23.794Z,1.45
2019-05-07T16:04:52.455Z,1.87
2019-05-07T16:07:22.493Z,1.67
2019-05-07T16:09:52.565Z,2.50
2019-05-07T16:12:22.685Z,2.15
2019-05-07T16:14:52.471Z,3.02
2019-05-07T16:17:21.758Z,1.20
2019-05-07T16:19:55.004Z,2.00
2019-05-07T16:22:22.273Z,1.30
2019-05-07T16:24:51.059Z,2.45
2019-05-07T16:27:19.750Z,2.33
2019-05-07T16:29:48.416Z,1.85
2019-05-07T16:32:17.088Z,2.37
2019-05-07T16:34:45.703Z,1.77
2019-05-07T16:37:14.366Z,1.45
2019-05-07T16:39:43.077Z,1.22
2019-05-07T16:42:11.764Z,1.92
2019-05-07T16:44:41.706Z,0.93
2019-05-07T16:47:12.165Z,2.70
2019-05-07T16:49:42.495Z,1.42
2019-05-07T16:52:12.015Z,1.35
2019-05-07T16:54:44.934Z,1.70
2019-05-07T16:57:12.171Z,4.35
2019-05-07T16:59:42.752Z,2.40
2019-05-07T17:02:11.509Z,2.10
2019-05-07T17:04:40.191Z,2.15
2019-05-07T17:07:08.905Z,2.92
2019-05-07T17:09:37.653Z,2.05
2019-05-07T17:12:06.269Z,2.75
2019-05-07T17:14:34.930Z,2.92
2019-05-07T17:17:03.618Z,1.70
2019-05-07T17:19:32.288Z,1.95
2019-05-07T17:22:02.818Z,1.22
2019-05-07T17:24:33.014Z,2.90
2019-05-07T17:27:02.387Z,3.45
2019-05-07T17:29:32.133Z,1.75
2019-05-07T17:32:01.646Z,2.30
2019-05-07T17:34:30.527Z,2.15
2019-05-07T17:36:59.181Z,1.92
2019-05-07T17:39:27.930Z,3.08
2019-05-07T17:41:56.543Z,3.08
2019-05-07T17:44:25.208Z,2.95
2019-05-07T17:46:53.817Z,2.87
2019-05-07T17:49:22.490Z,2.98
2019-05-07T17:51:52.592Z,2.70
2019-05-07T17:54:22.460Z,1.85
2019-05-07T17:56:52.688Z,2.55
2019-05-07T17:59:21.481Z,2.15
2019-05-07T18:01:52.875Z,2.42
2019-05-07T18:04:20.705Z,3.40
2019-05-07T18:06:49.326Z,1.92
2019-05-07T18:09:17.982Z,3.05
2019-05-07T18:11:46.591Z,2.22
2019-05-07T18:14:15.254Z,2.05
2019-05-07T18:16:43.917Z,1.52
2019-05-07T18:19:12.681Z,1.90
2019-05-07T18:21:41.824Z,1.02
2019-05-07T18:24:15.938Z,1.92
2019-05-07T18:26:42.284Z,1.12
2019-05-07T18:29:11.923Z,1.42
2019-05-07T18:31:41.944Z,1.20
2019-05-07T18:34:12.837Z,2.08
2019-05-07T18:36:42.244Z,0.98
2019-05-07T18:39:11.251Z,1.57
2019-05-07T18:41:41.702Z,2.15
2019-05-07T18:44:13.539Z,1.45
2019-05-07T18:46:40.883Z,1.57
2019-05-07T18:49:09.552Z,2.50
2019-05-07T18:51:38.168Z,1.10
2019-05-07T18:54:06.812Z,1.50
2019-05-07T18:56:35.431Z,1.95
2019-05-07T18:59:04.110Z,1.25
2019-05-07T19:01:32.860Z,1.35
2019-05-07T19:04:02.050Z,3.95
2019-05-07T19:06:31.888Z,3.67
2019-05-07T19:09:00.703Z,5.90
2019-05-07T19:11:29.364Z,4.85
2019-05-07T19:13:58.084Z,5.08
2019-05-07T19:16:26.736Z,5.78
2019-05-07T19:18:55.347Z,3.62
2019-05-07T19:21:24.015Z,5.97
2019-05-07T19:23:53.081Z,9.60
2019-05-07T19:26:21.857Z,15.85
2019-05-07T19:28:52.485Z,19.77
2019-05-07T19:31:21.991Z,14.70
2019-05-07T19:33:52.538Z,13.38
2019-05-07T19:36:22.348Z,9.43
2019-05-07T19:38:52.563Z,9.60
2019-05-07T19:41:21.394Z,10.48
2019-05-07T19:43:50.057Z,13.72
2019-05-07T19:46:18.881Z,10.93
2019-05-07T19:48:47.499Z,11.93
2019-05-07T19:51:16.116Z,11.97
2019-05-07T19:53:44.779Z,15.10
2019-05-07T19:56:13.394Z,12.58
2019-05-07T19:58:42.132Z,14.35
2019-05-07T20:01:12.124Z,16.12
2019-05-07T20:03:43.317Z,22.05
2019-05-07T20:06:12.887Z,20.23
2019-05-07T20:08:43.674Z,8.58
2019-05-07T20:11:12.314Z,4.95
2019-05-07T20:13:43.587Z,6.72
2019-05-07T20:16:12.243Z,8.00
2019-05-07T20:18:42.859Z,5.17
2019-05-07T20:21:12.407Z,7.55
2019-05-07T20:23:43.144Z,5.45
2019-05-07T20:26:12.592Z,3.83
2019-05-07T20:28:41.807Z,4.28
2019-05-07T20:31:12.159Z,6.28
2019-05-07T20:33:42.279Z,7.12
2019-05-07T20:36:11.371Z,6.12
2019-05-07T20:38:39.982Z,4.12
2019-05-07T20:41:12.920Z,4.05
2019-05-07T20:43:42.856Z,1.60
2019-05-07T20:46:12.030Z,2.62
2019-05-07T20:48:42.312Z,1.80
2019-05-07T20:51:12.415Z,3.02
2019-05-07T20:53:42.317Z,2.10
2019-05-07T20:56:11.731Z,2.72
2019-05-07T20:58:40.486Z,2.65
2019-05-07T21:01:09.152Z,1.82
2019-05-07T21:03:37.762Z,2.45
2019-05-07T21:06:06.493Z,1.98
2019-05-07T21:08:35.110Z,1.80
2019-05-07T21:11:03.764Z,2.20
2019-05-07T21:13:35.010Z,1.40
2019-05-07T21:16:03.428Z,2.42
2019-05-07T21:18:32.679Z,1.65
2019-05-07T21:21:02.259Z,2.30
2019-05-07T21:23:32.599Z,2.17
2019-05-07T21:26:02.192Z,1.80
2019-05-07T21:28:32.396Z,2.30
2019-05-07T21:31:02.762Z,1.90
2019-05-07T21:33:32.249Z,2.80
2019-05-07T21:36:02.891Z,3.70
2019-05-07T21:38:32.952Z,3.05
2019-05-07T21:41:01.788Z,2.70
2019-05-07T21:43:32.485Z,1.72
2019-05-07T21:46:02.437Z,2.30
2019-05-07T21:48:32.878Z,1.95
2019-05-07T21:51:02.496Z,2.65
2019-05-07T21:53:32.355Z,1.70
2019-05-07T21:56:03.025Z,2.87
2019-05-07T21:58:32.831Z,1.50
2019-05-07T22:01:02.117Z,2.27
2019-05-07T22:03:32.407Z,2.30
2019-05-07T22:06:02.618Z,1.87
2019-05-07T22:08:32.601Z,2.37
2019-05-07T22:11:02.462Z,2.65
2019-05-07T22:13:32.978Z,2.08
2019-05-07T22:16:02.485Z,3.58
2019-05-07T22:18:32.015Z,3.40
2019-05-07T22:21:02.869Z,3.92
2019-05-07T22:23:32.429Z,4.70
2019-05-07T22:26:18.522Z,2.85
2019-05-07T22:28:32.127Z,4.05
2019-05-07T22:31:02.307Z,3.87
2019-05-07T22:33:31.100Z,2.95
2019-05-07T22:36:01.713Z,4.03
2019-05-07T22:38:32.253Z,4.50
2019-05-07T22:41:02.134Z,3.95
2019-05-07T22:43:31.813Z,3.33
2019-05-07T22:46:00.676Z,3.08
2019-05-07T22:48:29.333Z,2.37
2019-05-07T22:50:57.950Z,2.83
2019-05-07T22:53:26.602Z,2.62
2019-05-07T22:55:55.255Z,2.08
2019-05-07T22:58:23.859Z,2.85
2019-05-07T23:00:52.523Z,2.65
2019-05-07T23:03:22.890Z,2.15
2019-05-07T23:05:52.309Z,1.90
2019-05-07T23:08:22.231Z,2.10
2019-05-07T23:10:52.571Z,1.75
2019-05-07T23:13:22.645Z,1.95
2019-05-07T23:15:51.783Z,1.60
2019-05-07T23:18:22.689Z,1.87
2019-05-07T23:20:52.683Z,2.25
2019-05-07T23:23:21.867Z,2.22
2019-05-07T23:25:52.360Z,3.70
2019-05-07T23:28:22.959Z,2.05
2019-05-07T23:30:51.946Z,3.33
2019-05-07T23:33:22.606Z,2.72
2019-05-07T23:35:52.791Z,2.02
2019-05-07T23:38:22.548Z,1.72
2019-05-07T23:40:52.560Z,2.50
2019-05-07T23:43:22.712Z,1.90
2019-05-07T23:45:52.584Z,2.15
2019-05-07T23:48:22.852Z,2.05
2019-05-07T23:50:52.560Z,2.02
2019-05-07T23:53:22.481Z,1.90
2019-05-07T23:55:52.057Z,2.30
2019-05-07T23:58:22.860Z,2.02
